sensor_id;sensor_type;location;lat;lon;timestamp;P1;durP1;ratioP1;P2;durP2;ratioP2
44434;SDS011;30138;20.964;105.830;2023-06-22T00:03:08;4.60;;;3.97;;
44434;SDS011;30138;20.964;105.830;2023-06-22T00:08:16;5.80;;;4.07;;
44434;SDS011;30138;20.964;105.830;2023-06-22T00:13:25;4.75;;;4.20;;
44434;SDS011;30138;20.964;105.830;2023-06-22T00:18:33;5.18;;;4.35;;
44434;SDS011;30138;20.964;105.830;2023-06-22T00:23:41;4.82;;;4.15;;
44434;SDS011;30138;20.964;105.830;2023-06-22T00:28:51;5.20;;;4.70;;
44434;SDS011;30138;20.964;105.830;2023-06-22T00:33:58;5.97;;;4.60;;
44434;SDS011;30138;20.964;105.830;2023-06-22T00:39:05;6.18;;;4.40;;
44434;SDS011;30138;20.964;105.830;2023-06-22T00:44:16;7.30;;;4.80;;
44434;SDS011;30138;20.964;105.830;2023-06-22T00:49:26;4.90;;;4.32;;
44434;SDS011;30138;20.964;105.830;2023-06-22T00:54:33;4.72;;;4.22;;
44434;SDS011;30138;20.964;105.830;2023-06-22T00:59:43;5.32;;;4.50;;
44434;SDS011;30138;20.964;105.830;2023-06-22T01:04:52;5.53;;;4.38;;
44434;SDS011;30138;20.964;105.830;2023-06-22T01:10:02;5.53;;;4.55;;
44434;SDS011;30138;20.964;105.830;2023-06-22T01:15:18;11.15;;;8.02;;
44434;SDS011;30138;20.964;105.830;2023-06-22T01:20:32;15.18;;;11.02;;
44434;SDS011;30138;20.964;105.830;2023-06-22T01:25:45;14.60;;;11.05;;
44434;SDS011;30138;20.964;105.830;2023-06-22T01:31:00;12.98;;;9.90;;
44434;SDS011;30138;20.964;105.830;2023-06-22T01:36:09;16.70;;;12.23;;
44434;SDS011;30138;20.964;105.830;2023-06-22T01:41:17;26.70;;;18.70;;
44434;SDS011;30138;20.964;105.830;2023-06-22T01:46:28;23.35;;;18.02;;
44434;SDS011;30138;20.964;105.830;2023-06-22T01:51:37;31.50;;;20.73;;
44434;SDS011;30138;20.964;105.830;2023-06-22T01:56:44;35.75;;;20.15;;
44434;SDS011;30138;20.964;105.830;2023-06-22T02:01:54;34.38;;;21.08;;
44434;SDS011;30138;20.964;105.830;2023-06-22T02:07:09;36.53;;;21.55;;
44434;SDS011;30138;20.964;105.830;2023-06-22T02:12:22;33.03;;;21.00;;
44434;SDS011;30138;20.964;105.830;2023-06-22T02:17:32;34.13;;;22.25;;
44434;SDS011;30138;20.964;105.830;2023-06-22T02:22:39;29.80;;;21.50;;
44434;SDS011;30138;20.964;105.830;2023-06-22T02:27:45;34.53;;;22.20;;
44434;SDS011;30138;20.964;105.830;2023-06-22T02:32:53;36.83;;;21.88;;
44434;SDS011;30138;20.964;105.830;2023-06-22T02:38:02;36.90;;;23.10;;
44434;SDS011;30138;20.964;105.830;2023-06-22T02:43:09;32.20;;;21.50;;
44434;SDS011;30138;20.964;105.830;2023-06-22T02:48:19;30.55;;;20.83;;
44434;SDS011;30138;20.964;105.830;2023-06-22T02:53:26;32.67;;;21.27;;
44434;SDS011;30138;20.964;105.830;2023-06-22T02:58:33;33.50;;;22.10;;
44434;SDS011;30138;20.964;105.830;2023-06-22T03:03:47;34.17;;;20.35;;
44434;SDS011;30138;20.964;105.830;2023-06-22T03:08:53;35.22;;;21.17;;
44434;SDS011;30138;20.964;105.830;2023-06-22T03:19:11;31.13;;;20.25;;
44434;SDS011;30138;20.964;105.830;2023-06-22T03:24:18;34.90;;;19.40;;
44434;SDS011;30138;20.964;105.830;2023-06-22T03:29:24;31.58;;;20.13;;
44434;SDS011;30138;20.964;105.830;2023-06-22T03:34:32;32.50;;;20.92;;
44434;SDS011;30138;20.964;105.830;2023-06-22T03:39:39;30.25;;;21.58;;
44434;SDS011;30138;20.964;105.830;2023-06-22T03:44:45;29.75;;;20.40;;
44434;SDS011;30138;20.964;105.830;2023-06-22T03:49:54;32.55;;;21.42;;
44434;SDS011;30138;20.964;105.830;2023-06-22T03:55:02;30.25;;;20.30;;
44434;SDS011;30138;20.964;105.830;2023-06-22T04:00:09;28.33;;;19.42;;
44434;SDS011;30138;20.964;105.830;2023-06-22T04:05:19;29.77;;;19.70;;
44434;SDS011;30138;20.964;105.830;2023-06-22T04:10:26;27.95;;;19.38;;
44434;SDS011;30138;20.964;105.830;2023-06-22T04:15:32;28.45;;;19.48;;
44434;SDS011;30138;20.964;105.830;2023-06-22T04:20:40;28.55;;;19.33;;
44434;SDS011;30138;20.964;105.830;2023-06-22T04:25:47;27.20;;;19.23;;
44434;SDS011;30138;20.964;105.830;2023-06-22T04:30:54;26.50;;;19.02;;
44434;SDS011;30138;20.964;105.830;2023-06-22T04:36:05;28.20;;;19.20;;
44434;SDS011;30138;20.964;105.830;2023-06-22T04:41:14;24.02;;;17.00;;
44434;SDS011;30138;20.964;105.830;2023-06-22T04:46:25;28.80;;;18.23;;
44434;SDS011;30138;20.964;105.830;2023-06-22T04:51:33;29.95;;;18.85;;
44434;SDS011;30138;20.964;105.830;2023-06-22T04:56:42;29.55;;;18.05;;
44434;SDS011;30138;20.964;105.830;2023-06-22T05:01:50;30.55;;;18.10;;
44434;SDS011;30138;20.964;105.830;2023-06-22T05:06:59;21.42;;;15.93;;
44434;SDS011;30138;20.964;105.830;2023-06-22T05:12:06;26.35;;;17.92;;
44434;SDS011;30138;20.964;105.830;2023-06-22T05:17:13;25.33;;;17.70;;
44434;SDS011;30138;20.964;105.830;2023-06-22T05:22:22;23.80;;;17.20;;
44434;SDS011;30138;20.964;105.830;2023-06-22T05:27:28;23.67;;;17.02;;
44434;SDS011;30138;20.964;105.830;2023-06-22T05:32:35;24.67;;;16.85;;
44434;SDS011;30138;20.964;105.830;2023-06-22T05:37:43;24.83;;;16.38;;
44434;SDS011;30138;20.964;105.830;2023-06-22T05:42:50;26.27;;;17.73;;
44434;SDS011;30138;20.964;105.830;2023-06-22T05:47:57;22.85;;;17.10;;
44434;SDS011;30138;20.964;105.830;2023-06-22T05:53:06;21.27;;;16.45;;
44434;SDS011;30138;20.964;105.830;2023-06-22T05:58:12;22.40;;;16.83;;
44434;SDS011;30138;20.964;105.830;2023-06-22T06:03:19;24.98;;;17.48;;
44434;SDS011;30138;20.964;105.830;2023-06-22T06:08:28;21.75;;;16.92;;
44434;SDS011;30138;20.964;105.830;2023-06-22T06:13:34;26.10;;;17.60;;
44434;SDS011;30138;20.964;105.830;2023-06-22T06:18:41;22.17;;;16.75;;
44434;SDS011;30138;20.964;105.830;2023-06-22T06:23:49;24.23;;;16.23;;
44434;SDS011;30138;20.964;105.830;2023-06-22T06:28:55;22.08;;;16.70;;
44434;SDS011;30138;20.964;105.830;2023-06-22T06:34:03;20.65;;;15.63;;
44434;SDS011;30138;20.964;105.830;2023-06-22T06:39:12;21.27;;;15.95;;
44434;SDS011;30138;20.964;105.830;2023-06-22T06:44:19;20.67;;;16.17;;
44434;SDS011;30138;20.964;105.830;2023-06-22T06:49:25;19.10;;;15.20;;
44434;SDS011;30138;20.964;105.830;2023-06-22T06:54:34;20.95;;;15.60;;
44434;SDS011;30138;20.964;105.830;2023-06-22T06:59:40;22.20;;;15.00;;
44434;SDS011;30138;20.964;105.830;2023-06-22T07:04:47;22.95;;;14.65;;
44434;SDS011;30138;20.964;105.830;2023-06-22T07:09:57;23.27;;;16.25;;
44434;SDS011;30138;20.964;105.830;2023-06-22T07:15:04;19.05;;;14.32;;
44434;SDS011;30138;20.964;105.830;2023-06-22T07:20:12;20.42;;;14.55;;
44434;SDS011;30138;20.964;105.830;2023-06-22T07:25:20;22.67;;;15.00;;
44434;SDS011;30138;20.964;105.830;2023-06-22T07:30:27;16.42;;;13.70;;
44434;SDS011;30138;20.964;105.830;2023-06-22T07:35:34;19.50;;;14.18;;
44434;SDS011;30138;20.964;105.830;2023-06-22T07:40:42;16.08;;;13.70;;
44434;SDS011;30138;20.964;105.830;2023-06-22T07:45:49;19.33;;;13.40;;
44434;SDS011;30138;20.964;105.830;2023-06-22T07:50:55;18.13;;;13.63;;
44434;SDS011;30138;20.964;105.830;2023-06-22T07:56:03;19.70;;;13.80;;
44434;SDS011;30138;20.964;105.830;2023-06-22T08:01:10;16.42;;;12.98;;
44434;SDS011;30138;20.964;105.830;2023-06-22T08:06:17;16.83;;;13.80;;
44434;SDS011;30138;20.964;105.830;2023-06-22T08:11:25;16.95;;;13.32;;
44434;SDS011;30138;20.964;105.830;2023-06-22T08:16:32;18.70;;;13.50;;
44434;SDS011;30138;20.964;105.830;2023-06-22T08:21:39;20.67;;;12.88;;
44434;SDS011;30138;20.964;105.830;2023-06-22T08:26:47;16.27;;;13.05;;
44434;SDS011;30138;20.964;105.830;2023-06-22T08:31:56;18.77;;;12.85;;
44434;SDS011;30138;20.964;105.830;2023-06-22T08:37:03;17.27;;;12.80;;
44434;SDS011;30138;20.964;105.830;2023-06-22T08:42:11;14.98;;;12.13;;
44434;SDS011;30138;20.964;105.830;2023-06-22T08:47:17;15.05;;;12.20;;
44434;SDS011;30138;20.964;105.830;2023-06-22T08:52:25;15.85;;;13.00;;
44434;SDS011;30138;20.964;105.830;2023-06-22T08:57:33;16.38;;;12.38;;
44434;SDS011;30138;20.964;105.830;2023-06-22T09:02:40;15.52;;;11.93;;
44434;SDS011;30138;20.964;105.830;2023-06-22T09:07:47;15.88;;;12.43;;
44434;SDS011;30138;20.964;105.830;2023-06-22T09:12:58;15.85;;;12.25;;
44434;SDS011;30138;20.964;105.830;2023-06-22T09:18:04;14.25;;;12.25;;
44434;SDS011;30138;20.964;105.830;2023-06-22T09:23:11;12.88;;;11.55;;
44434;SDS011;30138;20.964;105.830;2023-06-22T09:28:20;16.70;;;12.15;;
44434;SDS011;30138;20.964;105.830;2023-06-22T09:33:26;15.77;;;12.13;;
44434;SDS011;30138;20.964;105.830;2023-06-22T09:38:34;16.48;;;12.02;;
44434;SDS011;30138;20.964;105.830;2023-06-22T09:43:43;19.73;;;12.10;;
44434;SDS011;30138;20.964;105.830;2023-06-22T09:48:50;16.80;;;11.65;;
44434;SDS011;30138;20.964;105.830;2023-06-22T09:53:57;13.18;;;11.35;;
44434;SDS011;30138;20.964;105.830;2023-06-22T09:59:05;17.45;;;12.52;;
44434;SDS011;30138;20.964;105.830;2023-06-22T10:04:12;13.50;;;11.75;;
44434;SDS011;30138;20.964;105.830;2023-06-22T10:09:18;14.25;;;11.35;;
44434;SDS011;30138;20.964;105.830;2023-06-22T10:14:26;13.18;;;10.63;;
44434;SDS011;30138;20.964;105.830;2023-06-22T10:19:34;13.43;;;11.95;;
44434;SDS011;30138;20.964;105.830;2023-06-22T10:24:43;15.90;;;12.00;;
44434;SDS011;30138;20.964;105.830;2023-06-22T10:29:51;12.88;;;10.77;;
44434;SDS011;30138;20.964;105.830;2023-06-22T10:34:59;12.38;;;11.00;;
44434;SDS011;30138;20.964;105.830;2023-06-22T10:40:06;14.77;;;11.25;;
44434;SDS011;30138;20.964;105.830;2023-06-22T10:45:17;13.20;;;10.57;;
44434;SDS011;30138;20.964;105.830;2023-06-22T10:50:24;13.98;;;11.45;;
44434;SDS011;30138;20.964;105.830;2023-06-22T10:55:31;16.27;;;11.52;;
44434;SDS011;30138;20.964;105.830;2023-06-22T11:00:39;16.02;;;11.50;;
44434;SDS011;30138;20.964;105.830;2023-06-22T11:05:46;12.77;;;10.80;;
44434;SDS011;30138;20.964;105.830;2023-06-22T11:10:52;12.73;;;11.20;;
44434;SDS011;30138;20.964;105.830;2023-06-22T11:16:00;14.57;;;11.52;;
44434;SDS011;30138;20.964;105.830;2023-06-22T11:21:07;16.50;;;11.38;;
44434;SDS011;30138;20.964;105.830;2023-06-22T11:26:13;13.48;;;11.23;;
44434;SDS011;30138;20.964;105.830;2023-06-22T11:31:21;14.77;;;11.75;;
44434;SDS011;30138;20.964;105.830;2023-06-22T11:36:29;12.65;;;11.23;;
44434;SDS011;30138;20.964;105.830;2023-06-22T11:41:36;14.02;;;11.20;;
44434;SDS011;30138;20.964;105.830;2023-06-22T11:46:46;14.10;;;11.50;;
44434;SDS011;30138;20.964;105.830;2023-06-22T11:51:52;14.77;;;11.48;;
44434;SDS011;30138;20.964;105.830;2023-06-22T11:56:58;12.65;;;11.32;;
44434;SDS011;30138;20.964;105.830;2023-06-22T12:02:07;14.57;;;11.48;;
44434;SDS011;30138;20.964;105.830;2023-06-22T12:07:16;14.90;;;11.90;;
44434;SDS011;30138;20.964;105.830;2023-06-22T12:12:24;12.45;;;11.07;;
44434;SDS011;30138;20.964;105.830;2023-06-22T12:17:32;12.68;;;10.90;;
44434;SDS011;30138;20.964;105.830;2023-06-22T12:22:39;13.32;;;11.63;;
44434;SDS011;30138;20.964;105.830;2023-06-22T12:27:45;14.55;;;11.52;;
44434;SDS011;30138;20.964;105.830;2023-06-22T12:32:53;13.50;;;11.52;;
44434;SDS011;30138;20.964;105.830;2023-06-22T12:38:00;13.88;;;11.00;;
44434;SDS011;30138;20.964;105.830;2023-06-22T12:43:08;15.98;;;12.25;;
44434;SDS011;30138;20.964;105.830;2023-06-22T12:48:16;12.73;;;11.32;;
44434;SDS011;30138;20.964;105.830;2023-06-22T12:53:22;12.35;;;10.93;;
44434;SDS011;30138;20.964;105.830;2023-06-22T12:58:29;14.23;;;11.48;;
44434;SDS011;30138;20.964;105.830;2023-06-22T13:03:39;16.75;;;12.13;;
44434;SDS011;30138;20.964;105.830;2023-06-22T13:08:46;13.60;;;11.70;;
44434;SDS011;30138;20.964;105.830;2023-06-22T13:13:54;14.82;;;11.70;;
44434;SDS011;30138;20.964;105.830;2023-06-22T13:19:02;15.23;;;11.93;;
44434;SDS011;30138;20.964;105.830;2023-06-22T13:24:08;17.50;;;12.32;;
44434;SDS011;30138;20.964;105.830;2023-06-22T13:29:15;14.35;;;11.98;;
44434;SDS011;30138;20.964;105.830;2023-06-22T13:34:23;15.45;;;12.48;;
44434;SDS011;30138;20.964;105.830;2023-06-22T13:39:30;15.02;;;12.20;;
44434;SDS011;30138;20.964;105.830;2023-06-22T13:44:36;14.38;;;12.20;;
44434;SDS011;30138;20.964;105.830;2023-06-22T13:49:46;13.77;;;12.20;;
44434;SDS011;30138;20.964;105.830;2023-06-22T13:54:53;14.30;;;11.90;;
44434;SDS011;30138;20.964;105.830;2023-06-22T14:00:00;15.52;;;12.35;;
44434;SDS011;30138;20.964;105.830;2023-06-22T14:05:14;16.45;;;12.57;;
44434;SDS011;30138;20.964;105.830;2023-06-22T14:10:21;14.98;;;13.13;;
44434;SDS011;30138;20.964;105.830;2023-06-22T14:15:28;16.42;;;12.77;;
44434;SDS011;30138;20.964;105.830;2023-06-22T14:20:37;17.05;;;13.95;;
44434;SDS011;30138;20.964;105.830;2023-06-22T14:25:44;15.55;;;13.63;;
44434;SDS011;30138;20.964;105.830;2023-06-22T14:30:51;19.23;;;14.23;;
44434;SDS011;30138;20.964;105.830;2023-06-22T14:35:59;17.40;;;13.70;;
44434;SDS011;30138;20.964;105.830;2023-06-22T14:41:07;17.63;;;14.25;;
44434;SDS011;30138;20.964;105.830;2023-06-22T14:46:14;25.27;;;15.10;;
44434;SDS011;30138;20.964;105.830;2023-06-22T14:51:25;25.48;;;15.75;;
44434;SDS011;30138;20.964;105.830;2023-06-22T14:56:32;21.45;;;15.25;;
44434;SDS011;30138;20.964;105.830;2023-06-22T15:01:38;19.20;;;13.82;;
44434;SDS011;30138;20.964;105.830;2023-06-22T15:06:47;17.23;;;13.48;;
44434;SDS011;30138;20.964;105.830;2023-06-22T15:11:53;18.77;;;13.43;;
44434;SDS011;30138;20.964;105.830;2023-06-22T15:17:00;25.27;;;16.08;;
44434;SDS011;30138;20.964;105.830;2023-06-22T15:22:08;23.00;;;16.25;;
44434;SDS011;30138;20.964;105.830;2023-06-22T15:27:14;23.67;;;15.73;;
44434;SDS011;30138;20.964;105.830;2023-06-22T15:32:21;23.88;;;14.70;;
44434;SDS011;30138;20.964;105.830;2023-06-22T15:37:29;18.90;;;13.23;;
44434;SDS011;30138;20.964;105.830;2023-06-22T15:42:36;20.63;;;13.45;;
44434;SDS011;30138;20.964;105.830;2023-06-22T15:47:42;16.67;;;12.55;;
44434;SDS011;30138;20.964;105.830;2023-06-22T15:52:51;16.13;;;11.68;;
44434;SDS011;30138;20.964;105.830;2023-06-22T15:57:58;14.82;;;11.70;;
44434;SDS011;30138;20.964;105.830;2023-06-22T16:03:06;14.30;;;11.00;;
44434;SDS011;30138;20.964;105.830;2023-06-22T16:08:14;12.95;;;9.80;;
44434;SDS011;30138;20.964;105.830;2023-06-22T16:13:20;12.35;;;9.50;;
44434;SDS011;30138;20.964;105.830;2023-06-22T16:18:26;12.40;;;9.20;;
44434;SDS011;30138;20.964;105.830;2023-06-22T16:23:34;13.40;;;8.75;;
44434;SDS011;30138;20.964;105.830;2023-06-22T16:28:41;10.20;;;7.90;;
44434;SDS011;30138;20.964;105.830;2023-06-22T16:33:48;9.82;;;7.82;;
44434;SDS011;30138;20.964;105.830;2023-06-22T16:38:57;10.85;;;7.60;;
44434;SDS011;30138;20.964;105.830;2023-06-22T16:44:08;10.13;;;7.22;;
44434;SDS011;30138;20.964;105.830;2023-06-22T16:49:15;10.07;;;7.15;;
44434;SDS011;30138;20.964;105.830;2023-06-22T16:54:24;8.85;;;6.65;;
44434;SDS011;30138;20.964;105.830;2023-06-22T16:59:33;8.07;;;5.60;;
44434;SDS011;30138;20.964;105.830;2023-06-22T17:04:39;10.30;;;5.82;;
44434;SDS011;30138;20.964;105.830;2023-06-22T17:09:52;11.98;;;6.32;;
44434;SDS011;30138;20.964;105.830;2023-06-22T17:14:59;8.30;;;5.03;;
44434;SDS011;30138;20.964;105.830;2023-06-22T17:20:07;7.75;;;4.82;;
44434;SDS011;30138;20.964;105.830;2023-06-22T17:25:16;10.30;;;4.50;;
44434;SDS011;30138;20.964;105.830;2023-06-22T17:30:23;6.85;;;4.82;;
44434;SDS011;30138;20.964;105.830;2023-06-22T17:35:30;7.30;;;4.65;;
44434;SDS011;30138;20.964;105.830;2023-06-22T17:40:39;5.32;;;4.28;;
44434;SDS011;30138;20.964;105.830;2023-06-22T17:45:46;5.78;;;3.90;;
44434;SDS011;30138;20.964;105.830;2023-06-22T17:50:52;4.75;;;3.83;;
44434;SDS011;30138;20.964;105.830;2023-06-22T17:56:02;3.70;;;3.30;;
44434;SDS011;30138;20.964;105.830;2023-06-22T18:01:08;4.20;;;3.10;;
44434;SDS011;30138;20.964;105.830;2023-06-22T18:06:15;4.57;;;3.10;;
44434;SDS011;30138;20.964;105.830;2023-06-22T18:11:23;5.07;;;3.08;;
44434;SDS011;30138;20.964;105.830;2023-06-22T18:16:36;3.83;;;3.05;;
44434;SDS011;30138;20.964;105.830;2023-06-22T18:21:46;3.53;;;2.88;;
44434;SDS011;30138;20.964;105.830;2023-06-22T18:27:06;3.95;;;2.80;;
44434;SDS011;30138;20.964;105.830;2023-06-22T18:32:15;3.50;;;2.67;;
44434;SDS011;30138;20.964;105.830;2023-06-22T18:37:21;3.00;;;2.60;;
44434;SDS011;30138;20.964;105.830;2023-06-22T18:42:31;3.70;;;2.65;;
44434;SDS011;30138;20.964;105.830;2023-06-22T18:47:37;3.35;;;2.47;;
44434;SDS011;30138;20.964;105.830;2023-06-22T18:52:43;7.93;;;2.70;;
44434;SDS011;30138;20.964;105.830;2023-06-22T18:58:15;3.05;;;2.22;;
44434;SDS011;30138;20.964;105.830;2023-06-22T19:03:30;5.50;;;2.63;;
44434;SDS011;30138;20.964;105.830;2023-06-22T19:14:22;6.37;;;2.40;;
44434;SDS011;30138;20.964;105.830;2023-06-22T19:19:28;5.10;;;2.40;;
44434;SDS011;30138;20.964;105.830;2023-06-22T19:24:47;5.32;;;2.20;;
44434;SDS011;30138;20.964;105.830;2023-06-22T19:29:56;4.18;;;2.15;;
44434;SDS011;30138;20.964;105.830;2023-06-22T19:35:02;4.57;;;2.33;;
44434;SDS011;30138;20.964;105.830;2023-06-22T19:40:11;2.85;;;2.20;;
44434;SDS011;30138;20.964;105.830;2023-06-22T19:45:20;3.30;;;2.10;;
44434;SDS011;30138;20.964;105.830;2023-06-22T19:50:26;3.83;;;2.25;;
44434;SDS011;30138;20.964;105.830;2023-06-22T19:55:42;2.42;;;2.00;;
44434;SDS011;30138;20.964;105.830;2023-06-22T20:00:52;3.78;;;2.00;;
44434;SDS011;30138;20.964;105.830;2023-06-22T20:06:09;3.13;;;1.83;;
44434;SDS011;30138;20.964;105.830;2023-06-22T20:11:23;3.38;;;1.67;;
44434;SDS011;30138;20.964;105.830;2023-06-22T20:16:34;3.08;;;2.00;;
44434;SDS011;30138;20.964;105.830;2023-06-22T20:21:57;2.22;;;1.65;;
44434;SDS011;30138;20.964;105.830;2023-06-22T20:27:11;2.83;;;1.75;;
44434;SDS011;30138;20.964;105.830;2023-06-22T20:32:19;2.55;;;1.73;;
44434;SDS011;30138;20.964;105.830;2023-06-22T20:37:25;2.65;;;1.88;;
44434;SDS011;30138;20.964;105.830;2023-06-22T20:42:32;2.78;;;1.70;;
44434;SDS011;30138;20.964;105.830;2023-06-22T20:47:41;2.58;;;1.83;;
44434;SDS011;30138;20.964;105.830;2023-06-22T20:52:47;1.63;;;1.40;;
44434;SDS011;30138;20.964;105.830;2023-06-22T20:57:54;2.25;;;1.75;;
44434;SDS011;30138;20.964;105.830;2023-06-22T21:03:03;1.83;;;1.50;;
44434;SDS011;30138;20.964;105.830;2023-06-22T21:08:12;1.50;;;1.33;;
44434;SDS011;30138;20.964;105.830;2023-06-22T21:13:18;2.25;;;1.75;;
44434;SDS011;30138;20.964;105.830;2023-06-22T21:18:26;1.60;;;1.50;;
44434;SDS011;30138;20.964;105.830;2023-06-22T21:23:32;1.65;;;1.52;;
44434;SDS011;30138;20.964;105.830;2023-06-22T21:28:38;1.40;;;1.30;;
44434;SDS011;30138;20.964;105.830;2023-06-22T21:33:46;1.52;;;1.42;;
44434;SDS011;30138;20.964;105.830;2023-06-22T21:38:52;1.83;;;1.50;;
44434;SDS011;30138;20.964;105.830;2023-06-22T21:44:01;1.50;;;1.40;;
44434;SDS011;30138;20.964;105.830;2023-06-22T21:49:10;1.75;;;1.48;;
44434;SDS011;30138;20.964;105.830;2023-06-22T21:54:17;1.90;;;1.38;;
44434;SDS011;30138;20.964;105.830;2023-06-22T21:59:23;1.45;;;1.35;;
44434;SDS011;30138;20.964;105.830;2023-06-22T22:04:32;1.55;;;1.45;;
44434;SDS011;30138;20.964;105.830;2023-06-22T22:09:42;1.40;;;1.23;;
44434;SDS011;30138;20.964;105.830;2023-06-22T22:14:49;1.35;;;1.25;;
44434;SDS011;30138;20.964;105.830;2023-06-22T22:19:58;1.60;;;1.50;;
44434;SDS011;30138;20.964;105.830;2023-06-22T22:25:07;1.58;;;1.45;;
44434;SDS011;30138;20.964;105.830;2023-06-22T22:30:13;1.50;;;1.27;;
44434;SDS011;30138;20.964;105.830;2023-06-22T22:35:22;1.33;;;1.20;;
44434;SDS011;30138;20.964;105.830;2023-06-22T22:40:28;1.95;;;1.50;;
44434;SDS011;30138;20.964;105.830;2023-06-22T22:45:34;1.40;;;1.30;;
44434;SDS011;30138;20.964;105.830;2023-06-22T22:50:43;1.45;;;1.35;;
44434;SDS011;30138;20.964;105.830;2023-06-22T22:55:49;1.98;;;1.58;;
44434;SDS011;30138;20.964;105.830;2023-06-22T23:00:56;3.38;;;1.50;;
44434;SDS011;30138;20.964;105.830;2023-06-22T23:06:05;2.10;;;1.50;;
44434;SDS011;30138;20.964;105.830;2023-06-22T23:11:12;1.65;;;1.30;;
44434;SDS011;30138;20.964;105.830;2023-06-22T23:16:18;1.70;;;1.30;;
44434;SDS011;30138;20.964;105.830;2023-06-22T23:21:27;1.50;;;1.40;;
44434;SDS011;30138;20.964;105.830;2023-06-22T23:26:34;1.20;;;1.10;;
44434;SDS011;30138;20.964;105.830;2023-06-22T23:31:41;1.45;;;1.20;;
44434;SDS011;30138;20.964;105.830;2023-06-22T23:36:50;1.17;;;1.08;;
44434;SDS011;30138;20.964;105.830;2023-06-22T23:41:56;1.40;;;1.30;;
44434;SDS011;30138;20.964;105.830;2023-06-22T23:47:04;1.33;;;1.20;;
44434;SDS011;30138;20.964;105.830;2023-06-22T23:52:12;2.60;;;1.20;;
44434;SDS011;30138;20.964;105.830;2023-06-22T23:57:20;1.45;;;1.17;;
